Time;durP1;ratioP1;P1;durP2;ratioP2;P2;SDS_P1;SDS_P2;PMS_P1;PMS_P2;Temp;Humidity;BMP_temperature;BMP_pressure;BME280_temperature;BME280_humidity;BME280_pressure;Samples;Min_cycle;Max_cycle;Signal;HPM_P1;HPM_P2
2023/07/08 00:01:35;;;;;;;;;;;18.30;99.90;;;;;;5133456;28;20394;-44
2023/07/08 00:04:00;;;;;;;;;;;18.30;99.90;;;;;;5133679;28;19908;-43
2023/07/08 00:06:27;;;;;;;;;;;18.20;99.90;;;;;;5132598;28;20014;-42
2023/07/08 00:08:52;;;;;;;;;;;18.20;99.90;;;;;;5136022;27;19914;-42
2023/07/08 00:11:18;;;;;;;;;;;18.20;99.90;;;;;;5153802;27;19911;-43
2023/07/08 00:13:44;;;;;;;;;;;18.10;99.90;;;;;;5153500;27;19907;-44
2023/07/08 00:16:10;;;;;;;;;;;18.10;99.90;;;;;;5148630;27;19907;-43
2023/07/08 00:18:36;;;;;;;;;;;18.10;99.90;;;;;;5133414;28;20273;-42
2023/07/08 00:21:01;;;;;;;;;;;18.00;99.90;;;;;;5132519;28;20002;-43
2023/07/08 00:23:27;;;;;;;;;;;18.00;99.90;;;;;;5133358;28;19961;-42
2023/07/08 00:25:52;;;;;;;;;;;18.00;99.90;;;;;;5133505;28;20384;-43
2023/07/08 00:28:19;;;;;;;;;;;17.90;99.90;;;;;;5132610;28;19911;-43
2023/07/08 00:30:45;;;;;;;;;;;17.90;99.90;;;;;;5133609;27;20018;-43
2023/07/08 00:33:11;;;;;;;;;;;17.90;99.90;;;;;;5133229;27;20424;-42
2023/07/08 00:35:38;;;;;;;;;;;17.90;99.90;;;;;;5132486;28;20271;-42
2023/07/08 00:38:15;;;;;;;;;;;17.80;99.90;;;;;;5133297;27;19907;-42
2023/07/08 00:40:51;;;;;;;;;;;17.80;99.90;;;;;;5136113;27;19919;-43
2023/07/08 00:43:16;;;;;;;;;;;17.80;99.90;;;;;;5137205;27;19918;-42
2023/07/08 00:45:46;;;;;;;;;;;17.70;99.90;;;;;;5136876;27;19912;-42
2023/07/08 00:48:32;;;;;;;;;;;17.80;99.90;;;;;;5136307;27;19914;-42
2023/07/08 00:50:57;;;;;;;;;;;17.70;99.90;;;;;;5136498;27;19919;-42
2023/07/08 00:53:33;;;;;;;;;;;17.70;99.90;;;;;;5136822;27;19915;-43
2023/07/08 00:56:04;;;;;;;;;;;17.70;99.90;;;;;;5136231;27;19908;-42
2023/07/08 00:58:34;;;;;;;;;;;17.60;99.90;;;;;;5136839;27;19918;-43
2023/07/08 01:01:01;;;;;;;;;;;17.60;99.90;;;;;;5136887;27;20075;-43
2023/07/08 01:03:27;;;;;;;;;;;17.60;99.90;;;;;;5136020;27;19920;-43
2023/07/08 01:05:56;;;;;;;;;;;17.60;99.90;;;;;;5136831;27;19952;-43
2023/07/08 01:08:28;;;;;;;;;;;17.50;99.90;;;;;;5136641;27;19986;-42
2023/07/08 01:11:03;;;;;;;;;;;17.50;99.90;;;;;;5136848;27;20060;-43
2023/07/08 01:13:35;;;;;;;;;;;17.50;99.90;;;;;;5136559;27;19907;-43
2023/07/08 01:16:00;;;;;;;;;;;17.50;99.90;;;;;;5135828;27;19915;-42
2023/07/08 01:18:26;;;;;;;;;;;17.40;99.90;;;;;;5136483;27;19912;-43
2023/07/08 01:20:55;;;;;;;;;;;17.40;99.90;;;;;;5136365;27;19923;-43
2023/07/08 01:23:20;;;;;;;;;;;17.40;99.90;;;;;;5135579;27;19915;-43
2023/07/08 01:25:46;;;;;;;;;;;17.40;99.90;;;;;;5136471;27;19907;-42
2023/07/08 01:28:13;;;;;;;;;;;17.30;99.90;;;;;;5136301;27;20414;-42
2023/07/08 01:30:40;;;;;;;;;;;17.30;99.90;;;;;;5135541;27;19907;-43
2023/07/08 01:33:10;;;;;;;;;;;17.30;99.90;;;;;;5136123;27;19946;-43
2023/07/08 01:35:36;;;;;;;;;;;17.30;99.90;;;;;;5136285;27;19915;-43
2023/07/08 01:38:03;;;;;;;;;;;17.30;99.90;;;;;;5135183;27;20278;-42
2023/07/08 01:40:31;;;;;;;;;;;17.20;99.90;;;;;;5135518;27;19919;-43
2023/07/08 01:42:57;;;;;;;;;;;17.20;99.90;;;;;;5136011;27;20081;-44
2023/07/08 01:45:24;;;;;;;;;;;17.20;99.90;;;;;;5135200;27;20165;-43
2023/07/08 01:47:51;;;;;;;;;;;17.20;99.90;;;;;;5136051;27;19994;-42
2023/07/08 01:50:18;;;;;;;;;;;17.20;99.90;;;;;;5135259;27;19968;-42
2023/07/08 01:52:43;;;;;;;;;;;17.10;99.90;;;;;;5135122;27;19957;-42
2023/07/08 01:55:09;;;;;;;;;;;17.10;99.90;;;;;;5135755;27;19950;-43
2023/07/08 01:57:34;;;;;;;;;;;17.10;99.90;;;;;;5135893;27;20326;-43
2023/07/08 02:00:00;;;;;;;;;;;17.10;99.90;;;;;;5134908;27;19908;-42
2023/07/08 02:02:25;;;;;;;;;;;17.00;99.90;;;;;;5135724;27;20391;-43
2023/07/08 02:04:51;;;;;;;;;;;17.00;99.90;;;;;;5134784;27;19932;-43
2023/07/08 02:07:16;;;;;;;;;;;17.00;99.90;;;;;;5135203;27;19923;-42
2023/07/08 02:09:42;;;;;;;;;;;17.00;99.90;;;;;;5135556;27;19915;-44
2023/07/08 02:12:08;;;;;;;;;;;17.00;99.90;;;;;;5134864;27;20513;-44
2023/07/08 02:14:33;;;;;;;;;;;17.00;99.90;;;;;;5135437;27;20271;-43
2023/07/08 02:16:58;;;;;;;;;;;16.90;99.90;;;;;;5135174;27;19911;-42
2023/07/08 02:19:24;;;;;;;;;;;16.90;99.90;;;;;;5134663;27;19918;-43
2023/07/08 02:21:51;;;;;;;;;;;16.90;99.90;;;;;;5148618;27;19919;-42
2023/07/08 02:24:17;;;;;;;;;;;16.90;99.90;;;;;;5155860;27;20005;-42
2023/07/08 02:26:42;;;;;;;;;;;16.80;99.90;;;;;;5155211;27;19999;-42
2023/07/08 02:29:08;;;;;;;;;;;16.80;99.90;;;;;;5155859;27;19942;-42
2023/07/08 02:31:33;;;;;;;;;;;16.80;99.90;;;;;;5155840;27;19908;-43
2023/07/08 02:34:01;;;;;;;;;;;16.80;99.90;;;;;;5134450;27;19915;-43
2023/07/08 02:36:27;;;;;;;;;;;16.80;99.90;;;;;;5134894;27;19923;-43
2023/07/08 02:38:52;;;;;;;;;;;16.70;99.90;;;;;;5134793;27;19907;-43
2023/07/08 02:41:17;;;;;;;;;;;16.70;99.90;;;;;;5134009;27;20319;-43
2023/07/08 02:43:43;;;;;;;;;;;16.70;99.90;;;;;;5134908;27;19907;-42
2023/07/08 02:46:08;;;;;;;;;;;16.70;99.90;;;;;;5134799;27;19908;-43
2023/07/08 02:48:34;;;;;;;;;;;16.70;99.90;;;;;;5133962;27;19918;-42
2023/07/08 02:51:00;;;;;;;;;;;16.70;99.90;;;;;;5134645;27;19912;-43
2023/07/08 02:53:26;;;;;;;;;;;16.60;99.90;;;;;;5134556;27;19951;-44
2023/07/08 02:55:51;;;;;;;;;;;16.60;99.90;;;;;;5133839;27;19992;-43
2023/07/08 02:58:16;;;;;;;;;;;16.60;99.90;;;;;;5134536;27;20392;-42
2023/07/08 03:00:42;;;;;;;;;;;16.50;99.90;;;;;;5134125;27;20111;-42
2023/07/08 03:03:07;;;;;;;;;;;16.50;99.90;;;;;;5133269;27;20421;-43
2023/07/08 03:05:33;;;;;;;;;;;16.50;99.90;;;;;;5134397;27;19912;-44
2023/07/08 03:07:59;;;;;;;;;;;16.50;99.90;;;;;;5134380;27;19907;-42
2023/07/08 03:10:24;;;;;;;;;;;16.50;99.90;;;;;;5133609;27;19915;-42
2023/07/08 03:12:50;;;;;;;;;;;16.40;99.90;;;;;;5134673;27;19943;-43
2023/07/08 03:15:15;;;;;;;;;;;16.50;99.90;;;;;;5133495;27;19907;-42
2023/07/08 03:17:41;;;;;;;;;;;16.40;99.90;;;;;;5134302;27;19952;-43
2023/07/08 03:20:08;;;;;;;;;;;16.40;99.90;;;;;;5134052;27;19911;-43
2023/07/08 03:22:33;;;;;;;;;;;16.40;99.90;;;;;;5142735;27;19953;-43
2023/07/08 03:24:58;;;;;;;;;;;16.40;99.90;;;;;;5154906;27;19943;-42
2023/07/08 03:27:24;;;;;;;;;;;16.40;99.90;;;;;;5154809;27;19971;-42
2023/07/08 03:29:50;;;;;;;;;;;16.40;99.90;;;;;;5154041;27;19907;-41
2023/07/08 03:32:15;;;;;;;;;;;16.40;99.90;;;;;;5154539;27;19967;-42
2023/07/08 03:34:41;;;;;;;;;;;16.40;99.90;;;;;;5154661;27;20381;-42
2023/07/08 03:37:06;;;;;;;;;;;16.30;99.90;;;;;;5153923;27;20409;-42
2023/07/08 03:39:32;;;;;;;;;;;16.30;99.90;;;;;;5154362;27;20449;-43
2023/07/08 03:41:57;;;;;;;;;;;16.30;99.90;;;;;;5154549;27;19971;-43
2023/07/08 03:44:23;;;;;;;;;;;16.30;99.90;;;;;;5153787;27;19907;-42
2023/07/08 03:46:49;;;;;;;;;;;16.30;99.90;;;;;;5154599;27;19910;-42
2023/07/08 03:49:15;;;;;;;;;;;16.30;99.90;;;;;;5154350;27;19997;-42
2023/07/08 03:51:41;;;;;;;;;;;16.30;99.90;;;;;;5153382;27;19934;-42
2023/07/08 03:54:10;;;;;;;;;;;16.30;99.90;;;;;;5154510;27;19907;-43
2023/07/08 03:56:35;;;;;;;;;;;16.30;99.90;;;;;;5154405;27;19911;-43
2023/07/08 03:59:01;;;;;;;;;;;16.30;99.90;;;;;;5153668;27;19907;-42
2023/07/08 04:01:26;;;;;;;;;;;16.30;99.90;;;;;;5154227;27;19923;-43
2023/07/08 04:03:52;;;;;;;;;;;16.30;99.90;;;;;;5154295;27;19961;-42
2023/07/08 04:06:18;;;;;;;;;;;16.30;99.90;;;;;;5153517;27;20440;-43
2023/07/08 04:08:44;;;;;;;;;;;16.30;99.90;;;;;;5154380;27;19911;-42
2023/07/08 04:11:14;;;;;;;;;;;16.30;99.90;;;;;;5154309;27;19907;-42
2023/07/08 04:13:39;;;;;;;;;;;16.30;99.90;;;;;;5156078;27;19909;-43
2023/07/08 04:16:05;;;;;;;;;;;16.30;99.90;;;;;;5139846;27;19908;-42
2023/07/08 04:18:31;;;;;;;;;;;16.30;99.90;;;;;;5157625;27;19918;-43
2023/07/08 04:20:56;;;;;;;;;;;16.40;99.90;;;;;;5158367;27;20544;-42
2023/07/08 04:23:22;;;;;;;;;;;16.30;99.90;;;;;;5142611;27;19915;-42
2023/07/08 04:25:48;;;;;;;;;;;16.40;99.90;;;;;;5136862;27;20237;-42
2023/07/08 04:28:14;;;;;;;;;;;16.40;99.90;;;;;;5137535;27;19907;-43
2023/07/08 04:30:41;;;;;;;;;;;16.40;99.90;;;;;;5137437;27;19934;-43
2023/07/08 04:33:07;;;;;;;;;;;16.40;99.90;;;;;;5136590;27;19913;-43
2023/07/08 04:35:33;;;;;;;;;;;16.40;99.90;;;;;;5137315;27;19928;-42
2023/07/08 04:38:00;;;;;;;;;;;16.40;99.90;;;;;;5137353;27;19990;-42
2023/07/08 04:40:25;;;;;;;;;;;16.50;99.90;;;;;;5136151;27;19931;-42
2023/07/08 04:42:52;;;;;;;;;;;16.50;99.90;;;;;;5137293;27;20277;-42
2023/07/08 04:45:17;;;;;;;;;;;16.50;99.90;;;;;;5127409;27;20353;-42
2023/07/08 04:47:46;;;;;;;;;;;16.50;99.90;;;;;;5130318;27;19998;-42
2023/07/08 04:50:12;;;;;;;;;;;16.50;99.90;;;;;;5136062;27;19914;-43
2023/07/08 04:52:38;;;;;;;;;;;16.50;99.90;;;;;;5131652;27;19959;-43
2023/07/08 04:55:03;;;;;;;;;;;16.50;99.90;;;;;;5130422;27;19958;-42
2023/07/08 04:57:29;;;;;;;;;;;16.60;99.90;;;;;;5130818;27;19917;-44
2023/07/08 04:59:54;;;;;;;;;;;16.60;99.90;;;;;;5132288;27;19990;-43
2023/07/08 05:02:20;;;;;;;;;;;16.60;99.90;;;;;;5133221;27;19919;-42
2023/07/08 05:04:46;;;;;;;;;;;16.60;99.90;;;;;;5131837;27;20257;-44
2023/07/08 05:07:11;;;;;;;;;;;16.70;99.90;;;;;;5133622;27;19919;-43
2023/07/08 05:09:37;;;;;;;;;;;16.70;99.90;;;;;;5132662;27;19912;-42
2023/07/08 05:12:02;;;;;;;;;;;16.70;99.90;;;;;;5127534;27;19911;-42
2023/07/08 05:14:28;;;;;;;;;;;16.70;99.90;;;;;;5129464;27;19963;-42
2023/07/08 05:16:53;;;;;;;;;;;16.80;99.90;;;;;;5120514;27;19930;-44
2023/07/08 05:19:21;;;;;;;;;;;16.80;99.90;;;;;;5122792;27;19918;-42
2023/07/08 05:21:48;;;;;;;;;;;16.80;99.90;;;;;;5115109;28;19920;-42
2023/07/08 05:24:13;;;;;;;;;;;16.90;99.90;;;;;;5140793;27;20010;-42
2023/07/08 05:26:39;;;;;;;;;;;16.80;99.90;;;;;;5140487;27;19943;-42
2023/07/08 05:29:05;;;;;;;;;;;16.90;99.90;;;;;;5135449;27;19911;-43
2023/07/08 05:31:30;;;;;;;;;;;16.90;99.90;;;;;;5136200;27;20377;-42
2023/07/08 05:33:56;;;;;;;;;;;17.00;99.90;;;;;;5132636;27;19907;-42
2023/07/08 05:36:21;;;;;;;;;;;17.00;99.90;;;;;;5115073;27;19912;-42
2023/07/08 05:38:47;;;;;;;;;;;17.00;99.90;;;;;;5115041;27;20287;-43
2023/07/08 05:41:12;;;;;;;;;;;17.00;99.90;;;;;;5115353;28;20282;-42
2023/07/08 05:43:38;;;;;;;;;;;17.10;99.90;;;;;;5114503;28;20274;-43
2023/07/08 05:46:03;;;;;;;;;;;17.10;99.90;;;;;;5137724;27;19941;-42
2023/07/08 05:48:29;;;;;;;;;;;17.20;99.90;;;;;;5139572;27;20003;-42
2023/07/08 05:50:55;;;;;;;;;;;17.20;99.90;;;;;;5136246;27;19911;-41
2023/07/08 05:53:20;;;;;;;;;;;17.30;99.90;;;;;;5137184;27;19907;-42
2023/07/08 05:55:47;;;;;;;;;;;17.30;99.90;;;;;;5135783;27;19976;-42
2023/07/08 05:58:15;;;;;;;;;;;17.40;99.90;;;;;;5127637;27;19918;-42
2023/07/08 06:00:43;;;;;;;;;;;17.50;99.90;;;;;;5129340;27;19920;-42
2023/07/08 06:03:09;;;;;;;;;;;17.50;99.90;;;;;;5115791;27;19980;-45
2023/07/08 06:05:36;;;;;;;;;;;17.60;99.90;;;;;;5115180;27;19911;-42
2023/07/08 06:08:02;;;;;;;;;;;17.60;99.90;;;;;;5120356;27;20014;-44
2023/07/08 06:10:27;;;;;;;;;;;17.70;99.90;;;;;;5135365;27;19955;-42
2023/07/08 06:12:52;;;;;;;;;;;17.70;99.90;;;;;;5134683;27;19959;-42
2023/07/08 06:15:18;;;;;;;;;;;17.80;99.90;;;;;;5133139;27;20246;-42
2023/07/08 06:17:44;;;;;;;;;;;17.90;99.90;;;;;;5122649;27;20024;-42
2023/07/08 06:20:09;;;;;;;;;;;17.90;99.90;;;;;;5124838;27;20366;-42
2023/07/08 06:22:34;;;;;;;;;;;17.90;99.90;;;;;;5133746;27;19911;-42
2023/07/08 06:25:00;;;;;;;;;;;18.00;99.90;;;;;;5114790;28;19915;-43
2023/07/08 06:27:25;;;;;;;;;;;18.10;99.90;;;;;;5113877;28;19930;-42
2023/07/08 06:29:51;;;;;;;;;;;18.10;99.90;;;;;;5114684;28;19915;-42
2023/07/08 06:32:16;;;;;;;;;;;18.20;99.90;;;;;;5151174;27;19915;-42
2023/07/08 06:34:42;;;;;;;;;;;18.20;99.90;;;;;;5155875;27;19914;-42
2023/07/08 06:37:07;;;;;;;;;;;18.30;99.90;;;;;;5155640;27;19911;-43
2023/07/08 06:39:33;;;;;;;;;;;18.30;99.90;;;;;;5154811;27;19987;-42
2023/07/08 06:41:58;;;;;;;;;;;18.40;99.90;;;;;;5155540;27;19915;-42
2023/07/08 06:44:25;;;;;;;;;;;18.50;99.90;;;;;;5151936;27;19907;-43
2023/07/08 06:46:51;;;;;;;;;;;18.60;99.90;;;;;;5123925;27;19934;-42
2023/07/08 06:49:17;;;;;;;;;;;18.70;99.90;;;;;;5124860;27;20338;-41
2023/07/08 06:51:44;;;;;;;;;;;18.70;99.90;;;;;;5133832;27;19912;-42
2023/07/08 06:54:11;;;;;;;;;;;18.80;99.90;;;;;;5126820;27;19912;-43
2023/07/08 06:56:40;;;;;;;;;;;18.90;99.90;;;;;;5123733;27;19916;-43
2023/07/08 06:59:06;;;;;;;;;;;18.90;99.90;;;;;;5117308;27;19919;-42
2023/07/08 07:01:31;;;;;;;;;;;19.00;99.90;;;;;;5121805;27;19919;-42
2023/07/08 07:03:57;;;;;;;;;;;19.10;99.90;;;;;;5114084;28;19911;-42
2023/07/08 07:06:22;;;;;;;;;;;19.20;99.90;;;;;;5112190;27;19912;-42
2023/07/08 07:08:48;;;;;;;;;;;19.30;99.90;;;;;;5119072;27;19919;-42
2023/07/08 07:11:14;;;;;;;;;;;19.30;99.90;;;;;;5136372;27;19911;-42
2023/07/08 07:13:39;;;;;;;;;;;19.40;99.90;;;;;;5120341;27;20450;-42
2023/07/08 07:16:05;;;;;;;;;;;19.50;99.90;;;;;;5121862;27;19929;-43
2023/07/08 07:18:30;;;;;;;;;;;19.60;99.90;;;;;;5126145;27;20259;-42
2023/07/08 07:20:58;;;;;;;;;;;19.60;99.90;;;;;;5119025;27;20058;-43
2023/07/08 07:23:23;;;;;;;;;;;19.70;99.90;;;;;;5115735;27;19908;-42
2023/07/08 07:25:49;;;;;;;;;;;19.90;99.90;;;;;;5123454;27;19914;-42
2023/07/08 07:28:16;;;;;;;;;;;19.90;99.90;;;;;;5134064;27;19911;-42
2023/07/08 07:30:45;;;;;;;;;;;20.00;99.90;;;;;;5133059;27;20357;-43
2023/07/08 07:33:10;;;;;;;;;;;20.10;99.90;;;;;;5154675;27;20481;-43
2023/07/08 07:35:36;;;;;;;;;;;20.20;99.90;;;;;;5153948;27;19919;-42
2023/07/08 07:38:01;;;;;;;;;;;20.30;99.90;;;;;;5154692;27;20002;-43
2023/07/08 07:40:27;;;;;;;;;;;20.40;99.90;;;;;;5141576;27;19927;-42
2023/07/08 07:42:52;;;;;;;;;;;20.50;99.90;;;;;;5117505;27;19912;-42
2023/07/08 07:45:19;;;;;;;;;;;20.50;99.90;;;;;;5132658;27;19970;-42
2023/07/08 07:47:45;;;;;;;;;;;20.60;99.90;;;;;;5121137;27;19947;-43
2023/07/08 07:50:10;;;;;;;;;;;20.70;99.90;;;;;;5115248;27;19958;-42
2023/07/08 07:52:36;;;;;;;;;;;20.80;99.90;;;;;;5113094;28;20362;-43
2023/07/08 07:55:02;;;;;;;;;;;20.90;99.90;;;;;;5113077;28;19908;-43
2023/07/08 07:57:28;;;;;;;;;;;21.00;99.90;;;;;;5116347;27;19908;-42
2023/07/08 07:59:53;;;;;;;;;;;21.10;99.90;;;;;;5154116;27;19918;-42
2023/07/08 08:02:19;;;;;;;;;;;21.20;99.90;;;;;;5154237;27;19915;-42
2023/07/08 08:04:44;;;;;;;;;;;21.30;99.90;;;;;;5153659;27;19907;-44
2023/07/08 08:07:10;;;;;;;;;;;21.40;99.90;;;;;;5128024;27;20289;-43
2023/07/08 08:09:36;;;;;;;;;;;21.50;99.90;;;;;;5117899;28;19912;-42
2023/07/08 08:12:03;;;;;;;;;;;21.60;99.90;;;;;;5116535;28;19919;-43
2023/07/08 08:14:28;;;;;;;;;;;21.80;99.90;;;;;;5123964;28;19915;-42
2023/07/08 08:16:53;;;;;;;;;;;21.90;99.90;;;;;;5118168;28;20006;-43
2023/07/08 08:19:19;;;;;;;;;;;21.90;99.90;;;;;;5112282;28;19965;-42
2023/07/08 08:21:44;;;;;;;;;;;22.00;99.90;;;;;;5116383;28;20225;-43
2023/07/08 08:24:10;;;;;;;;;;;22.10;99.90;;;;;;5120791;28;19957;-42
2023/07/08 08:26:35;;;;;;;;;;;22.20;99.90;;;;;;5118315;28;20378;-42
2023/07/08 08:29:01;;;;;;;;;;;22.40;99.90;;;;;;5134864;27;19912;-42
2023/07/08 08:31:27;;;;;;;;;;;22.50;99.90;;;;;;5115123;27;20290;-42
2023/07/08 08:33:52;;;;;;;;;;;22.50;99.90;;;;;;5128648;28;19908;-42
2023/07/08 08:36:18;;;;;;;;;;;22.70;99.90;;;;;;5133332;28;19919;-43
2023/07/08 08:38:43;;;;;;;;;;;22.80;99.90;;;;;;5124959;28;19916;-43
2023/07/08 08:41:12;;;;;;;;;;;22.90;99.90;;;;;;5117981;28;19930;-42
2023/07/08 08:43:39;;;;;;;;;;;23.00;99.90;;;;;;5123291;28;19908;-43
2023/07/08 08:46:08;;;;;;;;;;;23.20;99.90;;;;;;5126427;28;19911;-42
2023/07/08 08:48:37;;;;;;;;;;;23.30;99.90;;;;;;5121245;28;19916;-43
2023/07/08 08:51:09;;;;;;;;;;;23.40;99.90;;;;;;5122641;28;19919;-42
2023/07/08 08:53:34;;;;;;;;;;;23.50;99.90;;;;;;5118136;28;20374;-42
2023/07/08 08:56:20;;;;;;;;;;;23.50;99.90;;;;;;5115216;28;19912;-42
2023/07/08 08:58:57;;;;;;;;;;;23.70;99.90;;;;;;5124350;27;20378;-43
2023/07/08 09:01:23;;;;;;;;;;;23.80;99.90;;;;;;5125091;27;19928;-42
2023/07/08 09:03:50;;;;;;;;;;;23.90;99.90;;;;;;5124799;27;20263;-44
2023/07/08 09:06:35;;;;;;;;;;;24.00;99.90;;;;;;5121133;27;19911;-42
2023/07/08 09:09:16;;;;;;;;;;;24.10;99.90;;;;;;5118860;27;19940;-42
2023/07/08 09:11:57;;;;;;;;;;;24.20;99.90;;;;;;5121676;27;19912;-42
2023/07/08 09:14:24;;;;;;;;;;;24.40;99.90;;;;;;5134123;27;19978;-43
2023/07/08 09:16:56;;;;;;;;;;;24.50;99.90;;;;;;5138165;27;19912;-42
2023/07/08 09:19:24;;;;;;;;;;;24.70;99.90;;;;;;5140157;27;19911;-42
2023/07/08 09:22:06;;;;;;;;;;;24.80;99.90;;;;;;5129247;27;19927;-43
2023/07/08 09:24:41;;;;;;;;;;;24.90;99.90;;;;;;5125525;27;19938;-42
2023/07/08 09:27:07;;;;;;;;;;;25.10;99.90;;;;;;5130927;27;19912;-43
2023/07/08 09:29:33;;;;;;;;;;;25.10;99.90;;;;;;5132513;27;19923;-42
2023/07/08 09:32:00;;;;;;;;;;;25.20;99.90;;;;;;5120362;27;19919;-44
2023/07/08 09:34:37;;;;;;;;;;;25.30;99.90;;;;;;5132071;27;19915;-43
2023/07/08 09:37:03;;;;;;;;;;;25.40;99.90;;;;;;5114136;28;19998;-42
2023/07/08 09:39:30;;;;;;;;;;;25.50;99.90;;;;;;5132047;27;20068;-43
2023/07/08 09:41:55;;;;;;;;;;;25.60;99.90;;;;;;5135712;27;20394;-43
2023/07/08 09:44:23;;;;;;;;;;;25.70;99.90;;;;;;5134599;27;19911;-43
2023/07/08 09:46:48;;;;;;;;;;;25.80;99.90;;;;;;5135462;27;20315;-44
2023/07/08 09:49:19;;;;;;;;;;;25.90;99.90;;;;;;5127238;27;19918;-43
2023/07/08 09:51:45;;;;;;;;;;;26.00;99.90;;;;;;5125261;27;19912;-43
2023/07/08 09:54:10;;;;;;;;;;;26.20;99.90;;;;;;5139125;27;20446;-43
2023/07/08 09:56:39;;;;;;;;;;;26.20;99.90;;;;;;5124923;27;19955;-43
2023/07/08 09:59:04;;;;;;;;;;;26.30;99.90;;;;;;5126999;27;19911;-43
2023/07/08 10:01:32;;;;;;;;;;;26.40;99.90;;;;;;5129826;27;19927;-42
2023/07/08 10:04:01;;;;;;;;;;;26.50;99.90;;;;;;5119403;27;19918;-42
2023/07/08 10:06:27;;;;;;;;;;;26.60;99.90;;;;;;5128031;27;19912;-42
2023/07/08 10:08:54;;;;;;;;;;;26.70;99.90;;;;;;5129806;27;20006;-42
2023/07/08 10:11:25;;;;;;;;;;;26.80;99.90;;;;;;5123999;27;20303;-43
2023/07/08 10:13:52;;;;;;;;;;;26.90;99.90;;;;;;5120796;27;19911;-42
2023/07/08 10:16:26;;;;;;;;;;;26.90;99.90;;;;;;5119600;27;20367;-43
2023/07/08 10:18:52;;;;;;;;;;;27.00;99.90;;;;;;5116743;27;19912;-43
2023/07/08 10:21:24;;;;;;;;;;;27.20;99.90;;;;;;5128251;27;20411;-43
2023/07/08 10:23:55;;;;;;;;;;;27.20;99.90;;;;;;5134940;27;20010;-43
2023/07/08 10:26:28;;;;;;;;;;;27.30;99.90;;;;;;5121691;27;20445;-43
2023/07/08 10:28:56;;;;;;;;;;;27.40;99.90;;;;;;5119611;27;19965;-43
2023/07/08 10:31:27;;;;;;;;;;;27.50;99.90;;;;;;5123715;27;20298;-42
2023/07/08 10:33:55;;;;;;;;;;;27.60;99.90;;;;;;5118820;27;20014;-43
2023/07/08 10:36:28;;;;;;;;;;;27.70;99.90;;;;;;5120641;27;20006;-45
2023/07/08 10:39:01;;;;;;;;;;;27.80;99.90;;;;;;5131110;27;19911;-42
2023/07/08 10:41:32;;;;;;;;;;;27.90;99.90;;;;;;5134797;27;19926;-44
2023/07/08 10:43:58;;;;;;;;;;;28.00;99.90;;;;;;5125551;27;19925;-43
2023/07/08 10:46:26;;;;;;;;;;;28.00;99.30;;;;;;5119416;27;20385;-43
2023/07/08 10:48:57;;;;;;;;;;;28.10;99.00;;;;;;5135537;27;19915;-43
2023/07/08 10:51:38;;;;;;;;;;;28.20;99.90;;;;;;5136459;27;20014;-43
2023/07/08 10:54:24;;;;;;;;;;;28.40;98.90;;;;;;5142784;27;20428;-43
2023/07/08 10:56:52;;;;;;;;;;;28.40;98.10;;;;;;5145947;27;19918;-43
2023/07/08 10:59:18;;;;;;;;;;;28.40;97.60;;;;;;5154256;27;19916;-44
2023/07/08 11:02:02;;;;;;;;;;;28.50;97.00;;;;;;5142027;27;19919;-43
2023/07/08 11:04:43;;;;;;;;;;;28.50;96.40;;;;;;5147683;27;20295;-42
2023/07/08 11:07:24;;;;;;;;;;;28.60;97.10;;;;;;5136330;27;19911;-42
2023/07/08 11:09:53;;;;;;;;;;;28.70;96.10;;;;;;5135049;27;19920;-43
2023/07/08 11:12:18;;;;;;;;;;;28.80;95.00;;;;;;5134997;27;20345;-43
2023/07/08 11:14:55;;;;;;;;;;;28.90;94.50;;;;;;5134559;27;19942;-43
2023/07/08 11:17:27;;;;;;;;;;;29.00;96.80;;;;;;5135039;27;20247;-44
2023/07/08 11:19:59;;;;;;;;;;;29.10;96.10;;;;;;5134904;27;19907;-43
2023/07/08 11:22:25;;;;;;;;;;;29.20;95.10;;;;;;5125221;27;20018;-43
2023/07/08 11:24:54;;;;;;;;;;;29.30;96.30;;;;;;5129525;27;19912;-43
2023/07/08 11:27:21;;;;;;;;;;;29.30;95.60;;;;;;5118347;27;19927;-43
2023/07/08 11:29:53;;;;;;;;;;;29.40;92.40;;;;;;5131874;27;19911;-44
2023/07/08 11:32:21;;;;;;;;;;;29.50;94.70;;;;;;5134579;27;19918;-42
2023/07/08 11:34:48;;;;;;;;;;;29.60;96.40;;;;;;5127191;27;19912;-43
2023/07/08 11:37:13;;;;;;;;;;;29.70;95.30;;;;;;5132242;27;19923;-43
2023/07/08 11:39:42;;;;;;;;;;;29.80;94.50;;;;;;5153617;27;19923;-44
2023/07/08 11:42:13;;;;;;;;;;;29.90;93.40;;;;;;5142064;27;19924;-43
2023/07/08 11:44:49;;;;;;;;;;;30.00;93.00;;;;;;5116209;27;20217;-42
2023/07/08 11:47:16;;;;;;;;;;;30.10;93.00;;;;;;5120643;27;19912;-44
2023/07/08 11:49:41;;;;;;;;;;;30.20;92.10;;;;;;5125121;27;19919;-44
2023/07/08 11:52:13;;;;;;;;;;;30.20;92.10;;;;;;5121999;27;19912;-42
2023/07/08 11:54:44;;;;;;;;;;;30.30;91.30;;;;;;5118474;27;19912;-42
2023/07/08 11:57:17;;;;;;;;;;;30.40;91.10;;;;;;5114507;28;19985;-43
2023/07/08 11:59:44;;;;;;;;;;;30.40;90.90;;;;;;5122695;28;19964;-43
2023/07/08 12:02:17;;;;;;;;;;;30.50;90.40;;;;;;5120783;28;19927;-43
2023/07/08 12:04:57;;;;;;;;;;;30.50;88.20;;;;;;5125243;28;19908;-43
2023/07/08 12:07:30;;;;;;;;;;;30.70;90.20;;;;;;5125500;27;19920;-44
2023/07/08 12:10:10;;;;;;;;;;;30.80;90.20;;;;;;5125279;28;19915;-43
2023/07/08 12:12:36;;;;;;;;;;;30.80;90.00;;;;;;5113052;28;20007;-43
2023/07/08 12:15:09;;;;;;;;;;;30.90;87.00;;;;;;5115291;28;20374;-43
2023/07/08 12:17:36;;;;;;;;;;;31.00;89.20;;;;;;5119182;27;19934;-45
2023/07/08 12:20:03;;;;;;;;;;;31.00;90.60;;;;;;5131301;27;19973;-43
2023/07/08 12:22:29;;;;;;;;;;;31.10;90.00;;;;;;5133403;28;19977;-43
2023/07/08 12:24:58;;;;;;;;;;;31.20;83.90;;;;;;5122791;28;20338;-43
2023/07/08 12:27:25;;;;;;;;;;;31.20;85.80;;;;;;5131532;28;19956;-43
2023/07/08 12:29:50;;;;;;;;;;;31.30;84.30;;;;;;5126578;28;19912;-43
2023/07/08 12:32:16;;;;;;;;;;;31.40;85.10;;;;;;5116546;28;19998;-42
2023/07/08 12:34:42;;;;;;;;;;;31.50;85.00;;;;;;5123888;27;19915;-43
2023/07/08 12:37:11;;;;;;;;;;;31.60;84.80;;;;;;5125751;27;20414;-43
2023/07/08 12:39:37;;;;;;;;;;;31.80;85.20;;;;;;5136778;27;19919;-43
2023/07/08 12:42:08;;;;;;;;;;;32.00;86.10;;;;;;5137807;27;19926;-43
2023/07/08 12:44:36;;;;;;;;;;;32.10;82.70;;;;;;5130365;27;19912;-43
2023/07/08 12:47:02;;;;;;;;;;;32.40;81.40;;;;;;5116644;27;19918;-42
2023/07/08 12:49:29;;;;;;;;;;;32.50;80.00;;;;;;5121657;27;19907;-43
2023/07/08 12:51:54;;;;;;;;;;;32.70;79.20;;;;;;5120306;27;20358;-44
2023/07/08 12:54:21;;;;;;;;;;;32.90;78.60;;;;;;5127033;27;19918;-42
2023/07/08 12:56:47;;;;;;;;;;;33.20;76.70;;;;;;5130165;27;19912;-43
2023/07/08 12:59:21;;;;;;;;;;;33.50;79.10;;;;;;5137080;27;19911;-42
2023/07/08 13:01:47;;;;;;;;;;;33.70;74.50;;;;;;5137694;27;19938;-43
2023/07/08 13:04:13;;;;;;;;;;;33.90;72.70;;;;;;5137555;27;20278;-43
2023/07/08 13:06:39;;;;;;;;;;;34.10;72.10;;;;;;5136860;27;19914;-42
2023/07/08 13:09:23;;;;;;;;;;;34.40;71.30;;;;;;5153633;27;19911;-43
2023/07/08 13:11:49;;;;;;;;;;;34.60;69.50;;;;;;5137387;27;19922;-43
2023/07/08 13:14:16;;;;;;;;;;;34.80;67.40;;;;;;5136909;27;19953;-44
2023/07/08 13:16:42;;;;;;;;;;;35.00;69.90;;;;;;5137389;27;19908;-43
2023/07/08 13:19:10;;;;;;;;;;;35.30;66.10;;;;;;5137278;27;20002;-43
2023/07/08 13:21:36;;;;;;;;;;;35.40;65.30;;;;;;5136620;27;19962;-43
2023/07/08 13:24:01;;;;;;;;;;;35.50;65.70;;;;;;5137242;27;19911;-43
2023/07/08 13:26:28;;;;;;;;;;;35.50;63.30;;;;;;5137234;27;20319;-43
2023/07/08 13:29:01;;;;;;;;;;;35.60;64.30;;;;;;5140051;27;19960;-43
2023/07/08 13:31:32;;;;;;;;;;;35.80;63.40;;;;;;5157800;27;20005;-43
2023/07/08 13:34:05;;;;;;;;;;;35.90;61.10;;;;;;5157839;27;19993;-44
2023/07/08 13:36:35;;;;;;;;;;;36.10;61.90;;;;;;5157557;27;19950;-43
2023/07/08 13:39:08;;;;;;;;;;;36.10;61.10;;;;;;5157124;27;19926;-44
2023/07/08 13:41:34;;;;;;;;;;;36.10;56.60;;;;;;5157082;27;19919;-43
2023/07/08 13:44:06;;;;;;;;;;;36.20;59.60;;;;;;5157667;27;19907;-45
2023/07/08 13:46:36;;;;;;;;;;;36.50;60.60;;;;;;5156854;27;19907;-43
2023/07/08 13:49:03;;;;;;;;;;;36.60;61.00;;;;;;5156850;27;19914;-42
2023/07/08 13:51:32;;;;;;;;;;;36.90;59.50;;;;;;5157366;27;20357;-43
2023/07/08 13:54:07;;;;;;;;;;;36.90;58.30;;;;;;5157523;27;19907;-43
2023/07/08 13:56:33;;;;;;;;;;;37.00;57.90;;;;;;5156916;27;19907;-43
2023/07/08 13:59:04;;;;;;;;;;;37.10;58.80;;;;;;5152916;27;19915;-43
2023/07/08 14:01:30;;;;;;;;;;;37.20;58.90;;;;;;5136374;27;19955;-43
2023/07/08 14:03:56;;;;;;;;;;;37.30;56.10;;;;;;5135956;27;20370;-43
2023/07/08 14:06:23;;;;;;;;;;;37.50;56.80;;;;;;5136254;27;20346;-43
2023/07/08 14:08:50;;;;;;;;;;;37.50;56.30;;;;;;5136442;27;20011;-43
2023/07/08 14:11:16;;;;;;;;;;;37.60;56.00;;;;;;5135865;27;19938;-43
2023/07/08 14:13:42;;;;;;;;;;;37.70;55.40;;;;;;5136357;27;19907;-43
2023/07/08 14:16:20;;;;;;;;;;;37.90;55.80;;;;;;5136188;27;20352;-43
2023/07/08 14:18:45;;;;;;;;;;;38.00;54.20;;;;;;5140207;27;19919;-43